createdAt,value
2023-04-05T00:00:32.540Z,0.68
2023-04-05T00:03:00.312Z,0.71
2023-04-05T00:05:31.565Z,0.72
2023-04-05T00:08:00.695Z,0.69
2023-04-05T00:10:28.766Z,0.78
2023-04-05T00:12:55.848Z,0.82
2023-04-05T00:15:23.084Z,0.71
2023-04-05T00:17:50.791Z,0.75
2023-04-05T00:20:17.645Z,0.67
2023-04-05T00:22:44.961Z,0.64
2023-04-05T00:25:12.295Z,0.66
2023-04-05T00:27:39.879Z,0.53
2023-04-05T00:30:07.380Z,0.58
2023-04-05T00:32:34.545Z,0.55
2023-04-05T00:35:01.524Z,0.43
2023-04-05T00:37:29.804Z,0.45
2023-04-05T00:39:57.610Z,0.56
2023-04-05T00:42:24.642Z,0.61
2023-04-05T00:44:51.561Z,0.57
2023-04-05T00:47:18.644Z,0.63
2023-04-05T00:49:46.382Z,0.62
2023-04-05T00:52:15.133Z,0.51
2023-04-05T00:54:43.438Z,0.67
2023-04-05T00:57:11.147Z,0.55
2023-04-05T00:59:38.093Z,0.69
2023-04-05T01:02:17.210Z,0.67
2023-04-05T01:04:50.203Z,0.66
2023-04-05T01:07:31.580Z,0.59
2023-04-05T01:10:01.269Z,0.46
2023-04-05T01:12:34.957Z,0.59
2023-04-05T01:15:04.731Z,0.58
2023-04-05T01:17:36.958Z,0.70
2023-04-05T01:20:10.919Z,0.74
2023-04-05T01:23:11.506Z,0.74
2023-04-05T01:25:54.084Z,0.65
2023-04-05T01:28:52.719Z,0.67
2023-04-05T01:31:26.168Z,0.63
2023-04-05T01:34:20.215Z,0.60
2023-04-05T01:36:56.159Z,0.55
2023-04-05T01:39:24.970Z,0.56
2023-04-05T01:41:51.986Z,0.55
2023-04-05T01:44:18.848Z,0.47
2023-04-05T01:46:47.028Z,0.47
2023-04-05T01:49:13.880Z,0.52
2023-04-05T01:51:42.196Z,0.57
2023-04-05T01:54:09.529Z,0.56
2023-04-05T01:56:36.699Z,0.47
2023-04-05T01:59:04.255Z,0.57
2023-04-05T02:01:32.165Z,0.57
2023-04-05T02:03:59.302Z,0.65
2023-04-05T02:06:26.701Z,0.69
2023-04-05T02:08:53.643Z,0.72
2023-04-05T02:11:21.224Z,0.72
2023-04-05T02:13:48.233Z,0.78
2023-04-05T02:16:16.718Z,0.86
2023-04-05T02:18:51.048Z,0.80
2023-04-05T02:21:18.293Z,0.64
2023-04-05T02:23:45.177Z,0.61
2023-04-05T02:26:12.173Z,0.77
2023-04-05T02:28:39.113Z,0.88
2023-04-05T02:31:14.276Z,0.86
2023-04-05T02:33:42.616Z,0.86
2023-04-05T02:36:11.787Z,0.93
2023-04-05T02:38:39.379Z,0.94
2023-04-05T02:41:09.937Z,0.85
2023-04-05T02:43:39.066Z,0.79
2023-04-05T02:46:06.502Z,0.81
2023-04-05T02:48:38.503Z,0.91
2023-04-05T02:51:06.245Z,0.88
2023-04-05T02:53:33.190Z,0.91
2023-04-05T02:56:03.531Z,0.91
2023-04-05T02:58:32.977Z,0.77
2023-04-05T03:01:06.089Z,0.91
2023-04-05T03:03:37.498Z,0.93
2023-04-05T03:06:13.410Z,0.87
2023-04-05T03:08:49.390Z,0.57
2023-04-05T03:11:24.734Z,0.71
2023-04-05T03:13:56.553Z,0.90
2023-04-05T03:16:44.849Z,0.84
2023-04-05T03:19:29.213Z,0.88
2023-04-05T03:22:07.988Z,0.81
2023-04-05T03:24:37.120Z,0.85
2023-04-05T03:27:07.800Z,0.91
2023-04-05T03:29:49.091Z,0.92
2023-04-05T03:32:18.104Z,0.95
2023-04-05T03:34:52.006Z,0.83
2023-04-05T03:37:20.973Z,0.78
2023-04-05T03:39:58.085Z,0.81
2023-04-05T03:42:25.386Z,0.81
2023-04-05T03:44:54.108Z,0.86
2023-04-05T03:47:21.089Z,0.79
2023-04-05T03:49:48.235Z,0.79
2023-04-05T03:52:15.253Z,0.85
2023-04-05T03:54:45.063Z,0.78
2023-04-05T03:57:14.201Z,0.83
2023-04-05T03:59:42.776Z,0.78
2023-04-05T04:02:09.971Z,0.69
2023-04-05T04:04:37.085Z,0.58
2023-04-05T04:07:03.950Z,0.68
2023-04-05T04:09:31.214Z,0.70
2023-04-05T04:12:05.711Z,0.77
2023-04-05T04:14:35.446Z,0.67
2023-04-05T04:17:30.216Z,0.74
2023-04-05T04:20:26.557Z,0.73
2023-04-05T04:23:14.566Z,0.70
2023-04-05T04:26:03.103Z,0.81
2023-04-05T04:28:49.082Z,0.89
2023-04-05T04:31:18.973Z,0.94
2023-04-05T04:34:06.894Z,0.89
2023-04-05T04:36:46.739Z,0.88
2023-04-05T04:39:36.170Z,0.90
2023-04-05T04:42:38.916Z,1.03
2023-04-05T04:45:10.815Z,1.10
2023-04-05T04:47:47.452Z,1.08
2023-04-05T04:50:24.681Z,1.20
2023-04-05T04:52:51.673Z,1.19
2023-04-05T04:55:25.220Z,1.19
2023-04-05T04:57:53.654Z,1.03
2023-04-05T05:00:22.277Z,1.03
2023-04-05T05:02:51.141Z,1.03
2023-04-05T05:05:23.240Z,1.09
2023-04-05T05:07:50.802Z,1.31
2023-04-05T05:10:18.975Z,0.71
2023-04-05T05:12:46.824Z,1.06
2023-04-05T05:15:15.207Z,1.31
2023-04-05T05:17:42.219Z,1.24
2023-04-05T05:20:12.755Z,1.28
2023-04-05T05:22:46.587Z,1.17
2023-04-05T05:25:13.491Z,1.31
2023-04-05T05:27:41.420Z,1.27
2023-04-05T05:30:09.379Z,1.30
2023-04-05T05:32:36.397Z,1.17
2023-04-05T05:35:03.544Z,1.52
2023-04-05T05:37:34.096Z,1.71
2023-04-05T05:40:01.083Z,1.86
2023-04-05T05:42:28.311Z,1.72
2023-04-05T05:44:55.609Z,1.87
2023-04-05T05:47:22.453Z,1.87
2023-04-05T05:49:52.208Z,1.80
2023-04-05T05:52:19.318Z,1.97
2023-04-05T05:54:47.308Z,2.25
2023-04-05T05:57:14.382Z,2.39
2023-04-05T05:59:41.836Z,2.36
2023-04-05T06:02:10.014Z,2.32
2023-04-05T06:04:38.088Z,2.60
2023-04-05T06:07:05.218Z,2.45
2023-04-05T06:09:35.312Z,2.51
2023-04-05T06:12:02.997Z,2.38
2023-04-05T06:14:30.095Z,2.52
2023-04-05T06:16:57.650Z,2.62
2023-04-05T06:19:24.531Z,2.68
2023-04-05T06:21:51.552Z,2.70
2023-04-05T06:24:18.380Z,2.65
2023-04-05T06:26:45.472Z,2.76
2023-04-05T06:29:12.361Z,2.74
2023-04-05T06:31:41.662Z,2.93
2023-04-05T06:34:08.640Z,3.00
2023-04-05T06:36:36.057Z,2.81
2023-04-05T06:39:03.213Z,2.97
2023-04-05T06:41:30.795Z,2.85
2023-04-05T06:43:57.638Z,3.01
2023-04-05T06:46:25.297Z,3.17
2023-04-05T06:48:52.864Z,3.50
2023-04-05T06:51:20.181Z,3.79
2023-04-05T06:53:47.169Z,4.19
2023-04-05T06:56:14.041Z,4.17
2023-04-05T06:58:41.903Z,4.21
2023-04-05T07:01:08.869Z,4.27
2023-04-05T07:03:36.274Z,4.34
2023-04-05T07:06:04.353Z,4.62
2023-04-05T07:08:33.096Z,4.54
2023-04-05T07:11:00.157Z,4.46
2023-04-05T07:13:27.456Z,4.34
2023-04-05T07:16:01.161Z,4.34
2023-04-05T07:18:30.167Z,4.07
2023-04-05T07:21:02.233Z,3.97
2023-04-05T07:23:30.798Z,3.97
2023-04-05T07:26:05.255Z,4.15
2023-04-05T07:28:33.242Z,3.89
2023-04-05T07:31:00.184Z,4.17
2023-04-05T07:33:28.018Z,3.97
2023-04-05T07:35:55.768Z,4.21
2023-04-05T07:38:23.586Z,4.01
2023-04-05T07:40:50.932Z,4.10
2023-04-05T07:43:21.280Z,4.17
2023-04-05T07:45:48.379Z,4.17
2023-04-05T07:48:15.556Z,4.32
2023-04-05T07:50:47.917Z,4.18
2023-04-05T07:53:16.710Z,4.06
2023-04-05T07:55:44.192Z,4.27
2023-04-05T07:58:11.326Z,4.27
2023-04-05T08:00:38.954Z,3.98
2023-04-05T08:03:06.826Z,3.85
2023-04-05T08:05:33.832Z,3.60
2023-04-05T08:08:01.743Z,3.52
2023-04-05T08:10:28.709Z,3.42
2023-04-05T08:12:55.818Z,3.64
2023-04-05T08:15:22.780Z,3.42
2023-04-05T08:17:49.893Z,3.50
2023-04-05T08:20:17.022Z,3.74
2023-04-05T08:22:44.262Z,3.65
2023-04-05T08:25:13.695Z,3.35
2023-04-05T08:27:41.379Z,3.98
2023-04-05T08:30:09.297Z,4.10
2023-04-05T08:32:36.593Z,3.31
2023-04-05T08:35:03.849Z,3.66
2023-04-05T08:37:34.872Z,3.81
2023-04-05T08:40:03.221Z,3.83
2023-04-05T08:42:36.515Z,3.86
2023-04-05T08:45:04.886Z,3.95
2023-04-05T08:47:34.996Z,4.04
2023-04-05T08:50:03.106Z,3.70
2023-04-05T08:52:32.502Z,4.01
2023-04-05T08:54:59.611Z,4.11
2023-04-05T08:57:31.008Z,4.38
2023-04-05T09:00:01.970Z,4.21
2023-04-05T09:02:32.902Z,4.39
2023-04-05T09:05:00.365Z,4.36
2023-04-05T09:07:30.431Z,4.14
2023-04-05T09:10:00.669Z,4.36
2023-04-05T09:12:28.439Z,4.41
2023-04-05T09:14:56.110Z,4.56
2023-04-05T09:17:23.088Z,4.52
2023-04-05T09:19:50.536Z,4.51
2023-04-05T09:22:20.442Z,4.45
2023-04-05T09:24:47.912Z,4.33
2023-04-05T09:27:19.935Z,4.52
2023-04-05T09:29:57.880Z,4.70
2023-04-05T09:32:27.796Z,5.09
2023-04-05T09:34:55.642Z,5.10
2023-04-05T09:37:33.973Z,4.82
2023-04-05T09:40:06.854Z,4.68
2023-04-05T09:42:46.106Z,4.52
2023-04-05T09:45:14.982Z,4.75
2023-04-05T09:47:57.489Z,4.63
2023-04-05T09:50:24.952Z,4.60
2023-04-05T09:53:09.468Z,4.98
2023-04-05T09:55:37.063Z,4.91
2023-04-05T09:58:04.104Z,4.77
2023-04-05T10:00:34.281Z,4.63
2023-04-05T10:03:21.070Z,4.97
2023-04-05T10:05:56.069Z,4.70
2023-04-05T10:08:24.485Z,4.71
2023-04-05T10:10:54.729Z,4.47
2023-04-05T10:13:22.321Z,4.73
2023-04-05T10:15:51.338Z,5.08
2023-04-05T10:18:25.275Z,5.27
2023-04-05T10:20:54.234Z,4.81
2023-04-05T10:23:35.060Z,4.64
2023-04-05T10:26:11.286Z,4.40
2023-04-05T10:28:47.487Z,5.12
2023-04-05T10:31:37.116Z,4.85
2023-04-05T10:34:09.360Z,4.77
2023-04-05T10:36:59.880Z,4.52
2023-04-05T10:39:35.358Z,4.62
2023-04-05T10:42:34.992Z,4.76
2023-04-05T10:45:10.075Z,5.00
2023-04-05T10:47:47.669Z,5.47
2023-04-05T10:50:21.599Z,5.91
2023-04-05T10:52:49.137Z,5.67
2023-04-05T10:55:17.318Z,5.55
2023-04-05T10:57:46.266Z,5.08
2023-04-05T11:00:14.690Z,5.05
2023-04-05T11:02:42.710Z,4.89
2023-04-05T11:05:31.452Z,4.83
2023-04-05T11:08:04.904Z,4.83
2023-04-05T11:10:37.676Z,4.85
2023-04-05T11:13:07.388Z,4.84
2023-04-05T11:15:35.393Z,4.82
2023-04-05T11:18:20.748Z,4.91
2023-04-05T11:20:48.911Z,4.71
2023-04-05T11:23:18.874Z,4.46
2023-04-05T11:25:59.889Z,4.25
2023-04-05T11:28:37.338Z,4.34
2023-04-05T11:31:19.112Z,4.57
2023-04-05T11:33:55.064Z,4.83
2023-04-05T11:36:50.494Z,4.77
2023-04-05T11:39:21.352Z,4.94
2023-04-05T11:42:02.140Z,5.06
2023-04-05T11:44:39.334Z,5.04
2023-04-05T11:47:06.907Z,5.06
2023-04-05T11:49:34.462Z,5.22
2023-04-05T11:52:11.953Z,5.35
2023-04-05T11:54:39.928Z,5.04
2023-04-05T11:57:13.017Z,4.76
2023-04-05T11:59:39.953Z,5.01
2023-04-05T12:02:08.364Z,5.50
2023-04-05T12:04:36.669Z,5.38
2023-04-05T12:07:11.844Z,5.35
2023-04-05T12:10:01.590Z,5.48
2023-04-05T12:12:34.288Z,5.36
2023-04-05T12:15:03.559Z,5.34
2023-04-05T12:17:47.180Z,5.60
2023-04-05T12:20:23.921Z,5.55
2023-04-05T12:22:53.378Z,5.34
2023-04-05T12:25:20.956Z,5.58
2023-04-05T12:27:47.967Z,5.51
2023-04-05T12:30:16.702Z,5.62
2023-04-05T12:32:50.452Z,5.91
2023-04-05T12:35:18.957Z,6.33
2023-04-05T12:37:46.967Z,6.00
2023-04-05T12:40:14.445Z,6.04
2023-04-05T12:42:41.820Z,6.09
2023-04-05T12:45:13.334Z,5.68
2023-04-05T12:47:51.000Z,5.82
2023-04-05T12:50:19.769Z,5.75
2023-04-05T12:53:23.771Z,5.14
2023-04-05T12:56:01.722Z,5.02
2023-04-05T12:58:36.819Z,4.47
2023-04-05T13:01:04.610Z,4.27
2023-04-05T13:03:31.864Z,4.03
2023-04-05T13:05:58.952Z,4.21
2023-04-05T13:08:27.727Z,4.08
2023-04-05T13:10:57.191Z,4.11
2023-04-05T13:13:25.579Z,4.04
2023-04-05T13:15:52.682Z,4.05
2023-04-05T13:18:20.681Z,4.05
2023-04-05T13:20:47.808Z,4.31
2023-04-05T13:23:15.090Z,4.36
2023-04-05T13:25:45.600Z,4.43
2023-04-05T13:28:13.752Z,4.45
2023-04-05T13:30:40.915Z,4.47
2023-04-05T13:33:07.828Z,4.81
2023-04-05T13:35:34.999Z,4.80
2023-04-05T13:38:04.321Z,4.81
2023-04-05T13:40:32.297Z,5.32
2023-04-05T13:42:59.415Z,5.37
2023-04-05T13:45:26.320Z,5.16
2023-04-05T13:47:53.519Z,5.29
2023-04-05T13:50:20.653Z,5.36
2023-04-05T13:52:47.592Z,5.17
2023-04-05T13:55:15.589Z,4.90
2023-04-05T13:57:42.651Z,5.15
2023-04-05T14:00:10.334Z,5.27
2023-04-05T14:02:41.192Z,5.33
2023-04-05T14:05:09.046Z,5.28
2023-04-05T14:07:36.925Z,5.09
2023-04-05T14:10:06.352Z,4.83
2023-04-05T14:12:33.982Z,4.78
2023-04-05T14:15:01.015Z,4.50
2023-04-05T14:17:28.296Z,4.15
2023-04-05T14:19:55.470Z,3.85
2023-04-05T14:22:22.514Z,3.41
2023-04-05T14:24:49.807Z,3.52
2023-04-05T14:27:16.818Z,3.42
2023-04-05T14:29:45.890Z,3.41
2023-04-05T14:32:13.214Z,3.35
2023-04-05T14:34:40.284Z,3.57
2023-04-05T14:37:08.055Z,3.60
2023-04-05T14:39:35.041Z,3.38
2023-04-05T14:42:05.228Z,3.37
2023-04-05T14:44:32.670Z,3.74
2023-04-05T14:46:59.712Z,3.75
2023-04-05T14:49:26.833Z,3.76
2023-04-05T14:51:53.722Z,4.00
2023-04-05T14:54:20.943Z,3.92
2023-04-05T14:56:48.203Z,3.80
2023-04-05T14:59:15.534Z,3.85
2023-04-05T15:01:44.470Z,3.64
2023-04-05T15:04:12.021Z,3.17
2023-04-05T15:06:39.062Z,3.46
2023-04-05T15:09:06.076Z,3.25
2023-04-05T15:11:35.784Z,3.36
2023-04-05T15:14:02.849Z,3.42
2023-04-05T15:16:30.645Z,3.63
2023-04-05T15:18:59.320Z,3.48
2023-04-05T15:21:26.725Z,3.60
2023-04-05T15:23:53.733Z,3.15
2023-04-05T15:26:21.637Z,3.05
2023-04-05T15:28:48.753Z,3.15
2023-04-05T15:31:16.080Z,3.07
2023-04-05T15:33:43.279Z,3.08
2023-04-05T15:36:10.580Z,3.06
2023-04-05T15:38:37.810Z,2.93
2023-04-05T15:41:05.093Z,2.65
2023-04-05T15:43:33.755Z,2.67
2023-04-05T15:46:00.990Z,2.60
2023-04-05T15:48:28.087Z,2.60
2023-04-05T15:50:55.168Z,2.76
2023-04-05T15:53:22.225Z,2.69
2023-04-05T15:55:49.492Z,2.86
2023-04-05T15:58:16.445Z,2.89
2023-04-05T16:00:43.908Z,2.99
2023-04-05T16:03:11.844Z,2.89
2023-04-05T16:05:39.048Z,2.17
2023-04-05T16:08:06.599Z,2.68
2023-04-05T16:10:33.513Z,2.87
2023-04-05T16:13:00.720Z,3.02
2023-04-05T16:15:28.719Z,2.78
2023-04-05T16:17:56.284Z,2.53
2023-04-05T16:20:23.766Z,2.46
2023-04-05T16:22:52.227Z,2.32
2023-04-05T16:25:19.601Z,2.33
2023-04-05T16:27:46.464Z,2.12
2023-04-05T16:30:13.737Z,2.02
2023-04-05T16:32:41.041Z,1.89
2023-04-05T16:35:08.492Z,1.84
2023-04-05T16:37:35.532Z,1.82
2023-04-05T16:40:04.495Z,1.82
2023-04-05T16:42:31.640Z,1.78
2023-04-05T16:44:59.023Z,1.83
2023-04-05T16:47:26.233Z,1.83
2023-04-05T16:49:53.629Z,1.85
2023-04-05T16:52:22.258Z,1.73
2023-04-05T16:54:49.502Z,1.70
2023-04-05T16:57:16.545Z,1.71
2023-04-05T16:59:43.775Z,1.36
2023-04-05T17:02:10.990Z,1.72
2023-04-05T17:04:38.211Z,1.62
2023-04-05T17:07:05.868Z,1.44
2023-04-05T17:09:33.513Z,1.29
2023-04-05T17:12:02.028Z,1.43
2023-04-05T17:14:29.337Z,1.48
2023-04-05T17:16:56.908Z,1.27
2023-04-05T17:19:23.799Z,1.38
2023-04-05T17:21:51.524Z,1.31
2023-04-05T17:24:21.585Z,1.41
2023-04-05T17:26:48.726Z,1.48
2023-04-05T17:29:17.654Z,1.39
2023-04-05T17:31:45.172Z,1.43
2023-04-05T17:34:14.999Z,1.42
2023-04-05T17:36:43.744Z,1.47
2023-04-05T17:39:13.714Z,1.23
2023-04-05T17:41:40.998Z,1.31
2023-04-05T17:44:08.551Z,1.26
2023-04-05T17:46:42.672Z,1.17
2023-04-05T17:49:11.939Z,1.48
2023-04-05T17:51:39.171Z,1.13
2023-04-05T17:54:09.124Z,1.55
2023-04-05T17:56:36.469Z,1.55
2023-04-05T17:59:04.297Z,1.52
2023-04-05T18:01:32.104Z,1.52
2023-04-05T18:03:59.781Z,1.11
2023-04-05T18:06:27.616Z,1.53
2023-04-05T18:08:54.826Z,1.46
2023-04-05T18:11:21.982Z,1.35
2023-04-05T18:13:49.011Z,1.30
2023-04-05T18:16:16.160Z,1.26
2023-04-05T18:18:43.062Z,1.15
2023-04-05T18:21:10.256Z,1.26
2023-04-05T18:23:37.083Z,1.24
2023-04-05T18:26:08.044Z,1.15
2023-04-05T18:28:36.775Z,1.17
2023-04-05T18:31:03.790Z,1.19
2023-04-05T18:33:31.373Z,1.12
2023-04-05T18:35:58.488Z,1.10
2023-04-05T18:38:26.591Z,1.15
2023-04-05T18:41:02.013Z,1.14
2023-04-05T18:43:29.871Z,1.17
2023-04-05T18:45:57.226Z,1.12
2023-04-05T18:48:25.231Z,1.25
2023-04-05T18:50:54.089Z,1.33
2023-04-05T18:53:22.390Z,1.33
2023-04-05T18:55:53.553Z,1.15
2023-04-05T18:58:20.965Z,1.33
2023-04-05T19:00:47.993Z,1.34
2023-04-05T19:03:16.359Z,1.32
2023-04-05T19:05:49.594Z,1.21
2023-04-05T19:08:18.880Z,1.17
2023-04-05T19:10:45.938Z,1.22
2023-04-05T19:13:13.444Z,1.29
2023-04-05T19:15:40.724Z,1.36
2023-04-05T19:18:08.059Z,1.24
2023-04-05T19:20:35.143Z,1.30
2023-04-05T19:23:02.266Z,1.24
2023-04-05T19:25:29.302Z,1.22
2023-04-05T19:27:56.569Z,1.30
2023-04-05T19:30:23.915Z,1.19
2023-04-05T19:32:53.850Z,1.21
2023-04-05T19:35:21.016Z,1.17
2023-04-05T19:40:32.710Z,1.14
2023-04-05T19:43:01.970Z,0.68
2023-04-05T19:45:30.592Z,1.07
2023-04-05T19:47:59.958Z,0.89
2023-04-05T19:50:40.608Z,0.95
2023-04-05T19:53:08.211Z,0.84
2023-04-05T19:55:37.963Z,0.71
2023-04-05T19:58:10.485Z,0.75
2023-04-05T20:00:47.119Z,0.65
2023-04-05T20:03:27.606Z,0.59
2023-04-05T20:06:05.211Z,0.61
2023-04-05T20:08:34.638Z,0.57
2023-04-05T20:11:05.388Z,0.56
2023-04-05T20:13:34.293Z,0.39
2023-04-05T20:16:01.289Z,0.41
2023-04-05T20:18:29.135Z,0.37
2023-04-05T20:20:56.925Z,0.34
2023-04-05T20:23:27.350Z,0.25
2023-04-05T20:25:54.723Z,0.02
2023-04-05T20:28:34.629Z,0.43
2023-04-05T20:31:02.757Z,0.44
2023-04-05T20:33:48.125Z,0.52
2023-04-05T20:36:36.023Z,0.60
2023-04-05T20:39:06.852Z,0.61
2023-04-05T20:41:34.163Z,0.51
2023-04-05T20:44:01.254Z,0.49
2023-04-05T20:46:28.696Z,0.56
2023-04-05T20:48:58.171Z,0.53
2023-04-05T20:51:25.927Z,0.48
2023-04-05T20:53:53.605Z,0.46
2023-04-05T20:56:20.973Z,0.42
2023-04-05T20:58:48.056Z,0.42
2023-04-05T21:01:15.773Z,0.39
2023-04-05T21:03:43.143Z,0.29
2023-04-05T21:06:11.899Z,0.47
2023-04-05T21:08:41.478Z,0.49
2023-04-05T21:11:10.753Z,0.48
2023-04-05T21:13:39.767Z,0.46
2023-04-05T21:16:07.373Z,0.46
2023-04-05T21:18:34.612Z,0.52
2023-04-05T21:21:01.527Z,0.47
2023-04-05T21:23:29.308Z,0.16
2023-04-05T21:25:57.617Z,0.41
2023-04-05T21:28:26.164Z,0.53
2023-04-05T21:30:53.612Z,0.43
2023-04-05T21:33:20.915Z,0.39
2023-04-05T21:35:48.350Z,0.51
2023-04-05T21:38:15.930Z,0.34
2023-04-05T21:40:44.716Z,0.40
2023-04-05T21:43:13.276Z,0.51
2023-04-05T21:45:40.438Z,0.52
2023-04-05T21:48:07.917Z,0.34
2023-04-05T21:50:35.127Z,0.46
2023-04-05T21:53:04.071Z,0.44
2023-04-05T21:55:31.161Z,0.47
2023-04-05T21:57:58.318Z,0.54
2023-04-05T22:00:25.331Z,0.55
2023-04-05T22:02:52.409Z,0.56
2023-04-05T22:05:33.981Z,0.47
2023-04-05T22:08:04.062Z,0.58
2023-04-05T22:10:31.182Z,0.58
2023-04-05T22:12:58.544Z,0.60
2023-04-05T22:15:25.852Z,0.68
2023-04-05T22:17:53.001Z,0.55
2023-04-05T22:20:20.178Z,0.64
2023-04-05T22:22:47.833Z,0.64
2023-04-05T22:25:14.986Z,0.65
2023-04-05T22:27:42.009Z,0.63
2023-04-05T22:30:09.524Z,0.59
2023-04-05T22:32:36.877Z,0.52
2023-04-05T22:35:04.485Z,0.47
2023-04-05T22:37:36.639Z,0.52
2023-04-05T22:40:04.825Z,0.45
2023-04-05T22:42:32.198Z,0.39
2023-04-05T22:44:59.534Z,0.39
2023-04-05T22:47:27.442Z,0.35
2023-04-05T22:49:54.863Z,0.36
2023-04-05T22:52:22.343Z,0.33
2023-04-05T22:54:49.232Z,0.31
2023-04-05T22:57:16.525Z,0.18
2023-04-05T22:59:43.612Z,0.25
2023-04-05T23:02:12.610Z,0.23
2023-04-05T23:04:39.887Z,0.09
2023-04-05T23:07:06.930Z,0.24
2023-04-05T23:09:34.440Z,0.23
2023-04-05T23:12:01.653Z,0.27
2023-04-05T23:14:31.432Z,0.07
2023-04-05T23:16:58.448Z,0.13
2023-04-05T23:19:25.644Z,0.17
2023-04-05T23:21:55.807Z,0.14
2023-04-05T23:24:22.905Z,0.10
2023-04-05T23:26:50.110Z,0.11
2023-04-05T23:29:18.711Z,0.10
2023-04-05T23:31:46.097Z,0.21
2023-04-05T23:34:13.176Z,0.17
2023-04-05T23:36:40.524Z,0.26
2023-04-05T23:39:07.943Z,0.29
2023-04-05T23:41:35.058Z,0.22
2023-04-05T23:44:02.092Z,0.28
2023-04-05T23:46:29.118Z,0.24
2023-04-05T23:48:56.349Z,0.19
2023-04-05T23:51:23.671Z,0.22
2023-04-05T23:53:51.612Z,0.23
2023-04-05T23:56:18.719Z,0.13
2023-04-05T23:58:46.144Z,0.19
